sensor_id;sensor_type;location;lat;lon;timestamp;temperature;humidity
11132;DHT22;5620;53.570;9.718;2023-03-23T00:01:28;11.10;99.90
11132;DHT22;5620;53.570;9.718;2023-03-23T00:03:56;11.00;1.00
11132;DHT22;5620;53.570;9.718;2023-03-23T00:06:25;11.00;1.00
11132;DHT22;5620;53.570;9.718;2023-03-23T00:08:54;11.00;99.90
11132;DHT22;5620;53.570;9.718;2023-03-23T00:11:22;11.00;99.90
11132;DHT22;5620;53.570;9.718;2023-03-23T00:13:50;11.00;99.90
11132;DHT22;5620;53.570;9.718;2023-03-23T00:16:18;11.00;1.00
11132;DHT22;5620;53.570;9.718;2023-03-23T00:18:50;11.00;1.00
11132;DHT22;5620;53.570;9.718;2023-03-23T00:21:16;11.00;1.00
11132;DHT22;5620;53.570;9.718;2023-03-23T00:23:42;11.00;1.00
11132;DHT22;5620;53.570;9.718;2023-03-23T00:26:08;11.00;1.00
11132;DHT22;5620;53.570;9.718;2023-03-23T00:28:35;11.00;1.00
11132;DHT22;5620;53.570;9.718;2023-03-23T00:31:03;11.00;12.40
11132;DHT22;5620;53.570;9.718;2023-03-23T00:33:34;11.00;99.90
11132;DHT22;5620;53.570;9.718;2023-03-23T00:36:01;11.00;99.90
11132;DHT22;5620;53.570;9.718;2023-03-23T00:38:37;11.00;99.90
11132;DHT22;5620;53.570;9.718;2023-03-23T00:41:05;11.00;1.00
11132;DHT22;5620;53.570;9.718;2023-03-23T00:43:32;11.00;1.00
11132;DHT22;5620;53.570;9.718;2023-03-23T00:45:58;11.00;1.00
11132;DHT22;5620;53.570;9.718;2023-03-23T00:48:25;10.90;82.00
11132;DHT22;5620;53.570;9.718;2023-03-23T00:50:52;10.90;99.90
11132;DHT22;5620;53.570;9.718;2023-03-23T00:53:19;10.90;1.00
11132;DHT22;5620;53.570;9.718;2023-03-23T00:55:46;10.90;1.00
11132;DHT22;5620;53.570;9.718;2023-03-23T00:58:13;10.90;1.00
11132;DHT22;5620;53.570;9.718;2023-03-23T01:00:40;11.00;1.00
11132;DHT22;5620;53.570;9.718;2023-03-23T01:03:07;11.00;1.00
11132;DHT22;5620;53.570;9.718;2023-03-23T01:05:37;11.00;1.00
11132;DHT22;5620;53.570;9.718;2023-03-23T01:08:04;11.00;1.00
11132;DHT22;5620;53.570;9.718;2023-03-23T01:10:32;11.00;93.50
11132;DHT22;5620;53.570;9.718;2023-03-23T01:13:02;11.00;85.20
11132;DHT22;5620;53.570;9.718;2023-03-23T01:15:30;11.00;99.90
11132;DHT22;5620;53.570;9.718;2023-03-23T01:17:58;11.10;99.90
11132;DHT22;5620;53.570;9.718;2023-03-23T01:20:24;11.10;99.90
11132;DHT22;5620;53.570;9.718;2023-03-23T01:22:52;11.10;99.90
11132;DHT22;5620;53.570;9.718;2023-03-23T01:25:18;11.10;99.90
11132;DHT22;5620;53.570;9.718;2023-03-23T01:27:44;11.10;99.90
11132;DHT22;5620;53.570;9.718;2023-03-23T01:30:14;11.10;1.00
11132;DHT22;5620;53.570;9.718;2023-03-23T01:32:39;11.10;1.00
11132;DHT22;5620;53.570;9.718;2023-03-23T01:35:05;11.20;99.90
11132;DHT22;5620;53.570;9.718;2023-03-23T01:37:33;11.20;99.90
11132;DHT22;5620;53.570;9.718;2023-03-23T01:39:58;11.10;99.90
11132;DHT22;5620;53.570;9.718;2023-03-23T01:42:29;11.10;1.00
11132;DHT22;5620;53.570;9.718;2023-03-23T01:45:40;11.10;1.00
11132;DHT22;5620;53.570;9.718;2023-03-23T01:47:41;11.20;1.00
11132;DHT22;5620;53.570;9.718;2023-03-23T01:50:07;11.20;1.00
11132;DHT22;5620;53.570;9.718;2023-03-23T01:52:34;11.20;1.00
11132;DHT22;5620;53.570;9.718;2023-03-23T01:55:00;11.20;1.00
11132;DHT22;5620;53.570;9.718;2023-03-23T01:57:26;11.20;1.00
11132;DHT22;5620;53.570;9.718;2023-03-23T01:59:55;11.20;1.00
11132;DHT22;5620;53.570;9.718;2023-03-23T02:02:25;11.10;1.00
11132;DHT22;5620;53.570;9.718;2023-03-23T02:04:51;11.20;1.00
11132;DHT22;5620;53.570;9.718;2023-03-23T02:07:22;11.20;1.00
11132;DHT22;5620;53.570;9.718;2023-03-23T02:09:50;11.30;1.00
11132;DHT22;5620;53.570;9.718;2023-03-23T02:12:18;11.20;1.00
11132;DHT22;5620;53.570;9.718;2023-03-23T02:14:45;11.20;1.00
11132;DHT22;5620;53.570;9.718;2023-03-23T02:17:38;11.20;34.50
11132;DHT22;5620;53.570;9.718;2023-03-23T02:28:48;11.20;99.90
11132;DHT22;5620;53.570;9.718;2023-03-23T02:37:03;11.20;99.90
11132;DHT22;5620;53.570;9.718;2023-03-23T02:39:56;11.20;99.90
11132;DHT22;5620;53.570;9.718;2023-03-23T02:42:32;11.10;99.90
11132;DHT22;5620;53.570;9.718;2023-03-23T02:45:04;11.20;99.90
11132;DHT22;5620;53.570;9.718;2023-03-23T02:47:33;11.20;99.90
11132;DHT22;5620;53.570;9.718;2023-03-23T02:50:00;11.20;99.90
11132;DHT22;5620;53.570;9.718;2023-03-23T02:52:29;11.20;99.90
11132;DHT22;5620;53.570;9.718;2023-03-23T02:54:57;11.20;99.90
11132;DHT22;5620;53.570;9.718;2023-03-23T02:57:24;11.20;99.90
11132;DHT22;5620;53.570;9.718;2023-03-23T02:59:52;11.20;99.90
11132;DHT22;5620;53.570;9.718;2023-03-23T03:03:10;11.20;99.90
11132;DHT22;5620;53.570;9.718;2023-03-23T03:08:50;11.20;99.90
11132;DHT22;5620;53.570;9.718;2023-03-23T03:11:21;11.20;99.90
11132;DHT22;5620;53.570;9.718;2023-03-23T03:14:06;11.20;99.90
11132;DHT22;5620;53.570;9.718;2023-03-23T03:16:46;11.20;99.90
11132;DHT22;5620;53.570;9.718;2023-03-23T03:19:30;11.10;99.90
11132;DHT22;5620;53.570;9.718;2023-03-23T03:21:59;11.10;99.90
11132;DHT22;5620;53.570;9.718;2023-03-23T03:24:28;11.10;99.90
11132;DHT22;5620;53.570;9.718;2023-03-23T03:26:57;11.10;1.00
11132;DHT22;5620;53.570;9.718;2023-03-23T03:29:32;11.20;99.90
11132;DHT22;5620;53.570;9.718;2023-03-23T03:32:06;11.20;99.90
11132;DHT22;5620;53.570;9.718;2023-03-23T03:34:33;11.20;1.00
11132;DHT22;5620;53.570;9.718;2023-03-23T03:36:59;11.20;99.90
11132;DHT22;5620;53.570;9.718;2023-03-23T03:39:27;11.30;1.00
11132;DHT22;5620;53.570;9.718;2023-03-23T03:41:56;11.30;1.00
11132;DHT22;5620;53.570;9.718;2023-03-23T03:44:22;11.30;1.00
11132;DHT22;5620;53.570;9.718;2023-03-23T03:46:48;11.30;1.00
11132;DHT22;5620;53.570;9.718;2023-03-23T03:49:14;11.30;1.00
11132;DHT22;5620;53.570;9.718;2023-03-23T03:51:41;11.40;1.00
11132;DHT22;5620;53.570;9.718;2023-03-23T03:54:07;11.40;1.00
11132;DHT22;5620;53.570;9.718;2023-03-23T03:56:32;11.30;1.00
11132;DHT22;5620;53.570;9.718;2023-03-23T03:58:58;11.20;1.00
11132;DHT22;5620;53.570;9.718;2023-03-23T04:01:25;11.20;1.00
11132;DHT22;5620;53.570;9.718;2023-03-23T04:03:51;11.20;1.00
11132;DHT22;5620;53.570;9.718;2023-03-23T04:06:17;11.30;1.00
11132;DHT22;5620;53.570;9.718;2023-03-23T04:08:43;11.30;1.00
11132;DHT22;5620;53.570;9.718;2023-03-23T04:11:10;11.30;1.00
11132;DHT22;5620;53.570;9.718;2023-03-23T04:13:37;11.30;1.00
11132;DHT22;5620;53.570;9.718;2023-03-23T04:16:03;11.40;1.00
11132;DHT22;5620;53.570;9.718;2023-03-23T04:18:30;11.40;1.00
11132;DHT22;5620;53.570;9.718;2023-03-23T04:20:59;11.40;1.00
11132;DHT22;5620;53.570;9.718;2023-03-23T04:23:30;11.40;1.00
11132;DHT22;5620;53.570;9.718;2023-03-23T04:25:57;11.40;1.00
11132;DHT22;5620;53.570;9.718;2023-03-23T04:28:26;11.40;1.00
11132;DHT22;5620;53.570;9.718;2023-03-23T04:30:52;11.40;1.00
11132;DHT22;5620;53.570;9.718;2023-03-23T04:33:19;11.40;1.00
11132;DHT22;5620;53.570;9.718;2023-03-23T04:35:48;11.50;1.00
11132;DHT22;5620;53.570;9.718;2023-03-23T04:38:15;11.50;1.00
11132;DHT22;5620;53.570;9.718;2023-03-23T04:40:44;11.50;1.00
11132;DHT22;5620;53.570;9.718;2023-03-23T04:43:11;11.50;1.00
11132;DHT22;5620;53.570;9.718;2023-03-23T04:45:36;11.50;1.00
11132;DHT22;5620;53.570;9.718;2023-03-23T04:48:04;11.50;1.00
11132;DHT22;5620;53.570;9.718;2023-03-23T04:50:31;11.50;1.00
11132;DHT22;5620;53.570;9.718;2023-03-23T04:53:03;11.40;1.00
11132;DHT22;5620;53.570;9.718;2023-03-23T04:55:31;11.40;1.00
11132;DHT22;5620;53.570;9.718;2023-03-23T04:57:57;11.30;1.00
11132;DHT22;5620;53.570;9.718;2023-03-23T05:00:24;11.30;1.00
11132;DHT22;5620;53.570;9.718;2023-03-23T05:02:52;11.30;1.00
11132;DHT22;5620;53.570;9.718;2023-03-23T05:05:20;11.30;1.00
11132;DHT22;5620;53.570;9.718;2023-03-23T05:07:47;11.30;1.00
11132;DHT22;5620;53.570;9.718;2023-03-23T05:10:14;11.40;1.00
11132;DHT22;5620;53.570;9.718;2023-03-23T05:12:40;11.40;1.00
11132;DHT22;5620;53.570;9.718;2023-03-23T05:15:09;11.40;1.00
11132;DHT22;5620;53.570;9.718;2023-03-23T05:17:37;11.40;1.00
11132;DHT22;5620;53.570;9.718;2023-03-23T05:20:06;11.40;1.00
11132;DHT22;5620;53.570;9.718;2023-03-23T05:22:32;11.40;1.00
11132;DHT22;5620;53.570;9.718;2023-03-23T05:24:59;11.40;1.00
11132;DHT22;5620;53.570;9.718;2023-03-23T05:27:24;11.40;1.00
11132;DHT22;5620;53.570;9.718;2023-03-23T05:29:51;11.40;1.00
11132;DHT22;5620;53.570;9.718;2023-03-23T05:32:18;11.40;1.00
11132;DHT22;5620;53.570;9.718;2023-03-23T05:34:44;11.40;1.00
11132;DHT22;5620;53.570;9.718;2023-03-23T05:37:10;11.40;1.00
11132;DHT22;5620;53.570;9.718;2023-03-23T05:39:37;11.40;1.00
11132;DHT22;5620;53.570;9.718;2023-03-23T05:42:05;11.40;1.00
11132;DHT22;5620;53.570;9.718;2023-03-23T05:44:32;11.40;1.00
11132;DHT22;5620;53.570;9.718;2023-03-23T05:46:59;11.40;1.00
11132;DHT22;5620;53.570;9.718;2023-03-23T05:49:25;11.40;1.00
11132;DHT22;5620;53.570;9.718;2023-03-23T05:51:51;11.40;1.00
11132;DHT22;5620;53.570;9.718;2023-03-23T05:54:18;11.30;1.00
11132;DHT22;5620;53.570;9.718;2023-03-23T05:56:45;11.30;1.00
11132;DHT22;5620;53.570;9.718;2023-03-23T05:59:12;11.30;1.00
11132;DHT22;5620;53.570;9.718;2023-03-23T06:01:37;11.40;1.00
11132;DHT22;5620;53.570;9.718;2023-03-23T06:04:03;11.30;1.00
11132;DHT22;5620;53.570;9.718;2023-03-23T06:06:31;11.30;1.00
11132;DHT22;5620;53.570;9.718;2023-03-23T06:08:58;11.20;1.00
11132;DHT22;5620;53.570;9.718;2023-03-23T06:11:24;11.10;1.00
11132;DHT22;5620;53.570;9.718;2023-03-23T06:13:50;11.10;1.00
11132;DHT22;5620;53.570;9.718;2023-03-23T06:16:16;11.00;1.00
11132;DHT22;5620;53.570;9.718;2023-03-23T06:18:42;11.00;1.00
11132;DHT22;5620;53.570;9.718;2023-03-23T06:21:09;11.00;1.00
11132;DHT22;5620;53.570;9.718;2023-03-23T06:23:36;11.10;1.00
11132;DHT22;5620;53.570;9.718;2023-03-23T06:26:07;11.20;1.00
11132;DHT22;5620;53.570;9.718;2023-03-23T06:28:34;11.30;1.00
11132;DHT22;5620;53.570;9.718;2023-03-23T06:31:02;11.50;1.00
11132;DHT22;5620;53.570;9.718;2023-03-23T06:33:29;11.70;1.00
11132;DHT22;5620;53.570;9.718;2023-03-23T06:35:59;11.70;1.00
11132;DHT22;5620;53.570;9.718;2023-03-23T06:38:26;11.80;1.00
11132;DHT22;5620;53.570;9.718;2023-03-23T06:40:53;11.90;1.00
11132;DHT22;5620;53.570;9.718;2023-03-23T06:43:18;12.10;1.00
11132;DHT22;5620;53.570;9.718;2023-03-23T06:45:46;12.20;1.00
11132;DHT22;5620;53.570;9.718;2023-03-23T06:48:11;12.20;1.00
11132;DHT22;5620;53.570;9.718;2023-03-23T06:50:42;12.20;1.00
11132;DHT22;5620;53.570;9.718;2023-03-23T06:53:09;12.30;1.00
11132;DHT22;5620;53.570;9.718;2023-03-23T06:55:39;12.50;1.00
11132;DHT22;5620;53.570;9.718;2023-03-23T06:58:07;12.60;1.00
11132;DHT22;5620;53.570;9.718;2023-03-23T07:00:33;12.70;1.00
11132;DHT22;5620;53.570;9.718;2023-03-23T07:02:59;12.90;1.00
11132;DHT22;5620;53.570;9.718;2023-03-23T07:05:26;13.20;1.00
11132;DHT22;5620;53.570;9.718;2023-03-23T07:07:53;13.30;1.00
11132;DHT22;5620;53.570;9.718;2023-03-23T07:10:19;13.20;99.90
11132;DHT22;5620;53.570;9.718;2023-03-23T07:12:44;13.20;99.90
11132;DHT22;5620;53.570;9.718;2023-03-23T07:15:12;13.20;99.90
11132;DHT22;5620;53.570;9.718;2023-03-23T07:17:38;13.20;21.30
11132;DHT22;5620;53.570;9.718;2023-03-23T07:20:06;13.20;99.90
11132;DHT22;5620;53.570;9.718;2023-03-23T07:22:33;13.20;99.90
11132;DHT22;5620;53.570;9.718;2023-03-23T07:25:01;13.40;1.00
11132;DHT22;5620;53.570;9.718;2023-03-23T07:27:28;13.50;1.00
11132;DHT22;5620;53.570;9.718;2023-03-23T07:29:53;13.50;1.00
11132;DHT22;5620;53.570;9.718;2023-03-23T07:32:20;13.50;1.00
11132;DHT22;5620;53.570;9.718;2023-03-23T07:34:47;13.10;99.90
11132;DHT22;5620;53.570;9.718;2023-03-23T07:37:15;12.60;99.90
11132;DHT22;5620;53.570;9.718;2023-03-23T07:39:42;12.20;99.90
11132;DHT22;5620;53.570;9.718;2023-03-23T07:42:10;11.90;99.90
11132;DHT22;5620;53.570;9.718;2023-03-23T07:44:38;11.70;99.90
11132;DHT22;5620;53.570;9.718;2023-03-23T07:47:04;11.60;3.60
11132;DHT22;5620;53.570;9.718;2023-03-23T07:49:30;11.50;1.00
11132;DHT22;5620;53.570;9.718;2023-03-23T07:51:58;11.50;76.20
11132;DHT22;5620;53.570;9.718;2023-03-23T07:54:25;11.50;99.90
11132;DHT22;5620;53.570;9.718;2023-03-23T07:56:52;11.50;99.90
11132;DHT22;5620;53.570;9.718;2023-03-23T07:59:19;11.50;99.90
11132;DHT22;5620;53.570;9.718;2023-03-23T08:01:44;11.30;99.90
11132;DHT22;5620;53.570;9.718;2023-03-23T08:04:10;11.20;1.00
11132;DHT22;5620;53.570;9.718;2023-03-23T08:06:36;11.00;99.90
11132;DHT22;5620;53.570;9.718;2023-03-23T08:09:02;10.80;1.00
11132;DHT22;5620;53.570;9.718;2023-03-23T08:11:29;10.70;1.00
11132;DHT22;5620;53.570;9.718;2023-03-23T08:13:56;10.70;99.90
11132;DHT22;5620;53.570;9.718;2023-03-23T08:16:21;10.80;99.90
11132;DHT22;5620;53.570;9.718;2023-03-23T08:18:48;10.80;99.90
11132;DHT22;5620;53.570;9.718;2023-03-23T08:21:15;10.90;99.90
11132;DHT22;5620;53.570;9.718;2023-03-23T08:23:42;10.80;99.90
11132;DHT22;5620;53.570;9.718;2023-03-23T08:26:09;10.80;99.90
11132;DHT22;5620;53.570;9.718;2023-03-23T08:28:36;10.80;1.00
11132;DHT22;5620;53.570;9.718;2023-03-23T08:31:09;10.90;1.00
11132;DHT22;5620;53.570;9.718;2023-03-23T08:33:38;11.00;1.00
11132;DHT22;5620;53.570;9.718;2023-03-23T08:36:04;11.10;1.00
11132;DHT22;5620;53.570;9.718;2023-03-23T08:38:30;11.20;1.00
11132;DHT22;5620;53.570;9.718;2023-03-23T08:41:04;11.40;1.00
11132;DHT22;5620;53.570;9.718;2023-03-23T08:43:31;11.50;1.00
11132;DHT22;5620;53.570;9.718;2023-03-23T08:45:57;11.50;1.00
11132;DHT22;5620;53.570;9.718;2023-03-23T08:48:25;11.70;1.00
11132;DHT22;5620;53.570;9.718;2023-03-23T08:50:51;11.70;1.00
11132;DHT22;5620;53.570;9.718;2023-03-23T08:53:20;11.70;1.00
11132;DHT22;5620;53.570;9.718;2023-03-23T08:55:45;11.70;1.00
11132;DHT22;5620;53.570;9.718;2023-03-23T08:58:15;11.60;1.00
11132;DHT22;5620;53.570;9.718;2023-03-23T09:00:41;11.60;1.00
11132;DHT22;5620;53.570;9.718;2023-03-23T09:03:07;11.60;1.00
11132;DHT22;5620;53.570;9.718;2023-03-23T09:05:34;11.70;1.00
11132;DHT22;5620;53.570;9.718;2023-03-23T09:08:03;11.70;1.00
11132;DHT22;5620;53.570;9.718;2023-03-23T09:10:34;11.70;1.00
11132;DHT22;5620;53.570;9.718;2023-03-23T09:13:01;11.70;1.00
11132;DHT22;5620;53.570;9.718;2023-03-23T09:15:29;11.80;1.00
11132;DHT22;5620;53.570;9.718;2023-03-23T09:17:59;11.90;1.00
11132;DHT22;5620;53.570;9.718;2023-03-23T09:20:27;11.90;1.00
11132;DHT22;5620;53.570;9.718;2023-03-23T09:22:57;12.00;1.00
11132;DHT22;5620;53.570;9.718;2023-03-23T09:25:26;12.00;1.00
11132;DHT22;5620;53.570;9.718;2023-03-23T09:27:55;12.00;1.00
11132;DHT22;5620;53.570;9.718;2023-03-23T09:30:26;12.10;1.00
11132;DHT22;5620;53.570;9.718;2023-03-23T09:32:54;12.30;1.00
11132;DHT22;5620;53.570;9.718;2023-03-23T09:35:23;12.60;3.00
11132;DHT22;5620;53.570;9.718;2023-03-23T09:37:52;12.80;1.00
11132;DHT22;5620;53.570;9.718;2023-03-23T09:40:22;13.10;4.00
11132;DHT22;5620;53.570;9.718;2023-03-23T09:43:11;13.20;1.00
11132;DHT22;5620;53.570;9.718;2023-03-23T09:46:58;13.40;1.00
11132;DHT22;5620;53.570;9.718;2023-03-23T09:49:00;13.70;1.00
11132;DHT22;5620;53.570;9.718;2023-03-23T09:51:50;14.00;1.00
11132;DHT22;5620;53.570;9.718;2023-03-23T09:54:36;14.20;1.00
11132;DHT22;5620;53.570;9.718;2023-03-23T09:57:05;14.40;99.90
11132;DHT22;5620;53.570;9.718;2023-03-23T09:59:59;14.60;1.00
11132;DHT22;5620;53.570;9.718;2023-03-23T10:03:00;15.00;1.00
11132;DHT22;5620;53.570;9.718;2023-03-23T10:08:21;15.30;1.00
11132;DHT22;5620;53.570;9.718;2023-03-23T10:16:10;15.90;99.90
11132;DHT22;5620;53.570;9.718;2023-03-23T10:21:39;15.60;11.10
11132;DHT22;5620;53.570;9.718;2023-03-23T10:24:12;15.50;45.60
11132;DHT22;5620;53.570;9.718;2023-03-23T10:27:21;15.70;1.00
11132;DHT22;5620;53.570;9.718;2023-03-23T10:30:25;15.60;99.90
11132;DHT22;5620;53.570;9.718;2023-03-23T10:33:22;15.50;99.90
11132;DHT22;5620;53.570;9.718;2023-03-23T10:36:13;15.20;99.90
11132;DHT22;5620;53.570;9.718;2023-03-23T10:38:49;15.10;99.90
11132;DHT22;5620;53.570;9.718;2023-03-23T10:41:21;15.20;99.90
11132;DHT22;5620;53.570;9.718;2023-03-23T10:43:49;15.30;99.90
11132;DHT22;5620;53.570;9.718;2023-03-23T10:49:28;15.50;99.00
11132;DHT22;5620;53.570;9.718;2023-03-23T10:55:14;16.20;1.00
11132;DHT22;5620;53.570;9.718;2023-03-23T10:57:44;16.50;99.90
11132;DHT22;5620;53.570;9.718;2023-03-23T11:00:29;17.00;99.90
11132;DHT22;5620;53.570;9.718;2023-03-23T11:03:07;17.30;99.90
11132;DHT22;5620;53.570;9.718;2023-03-23T11:05:52;17.40;76.50
11132;DHT22;5620;53.570;9.718;2023-03-23T11:08:23;17.70;47.10
11132;DHT22;5620;53.570;9.718;2023-03-23T11:10:57;17.80;1.00
11132;DHT22;5620;53.570;9.718;2023-03-23T11:13:32;17.80;1.00
11132;DHT22;5620;53.570;9.718;2023-03-23T11:15:58;18.00;1.00
11132;DHT22;5620;53.570;9.718;2023-03-23T11:18:40;17.70;1.00
11132;DHT22;5620;53.570;9.718;2023-03-23T11:21:12;17.70;1.00
11132;DHT22;5620;53.570;9.718;2023-03-23T11:23:52;17.50;1.00
11132;DHT22;5620;53.570;9.718;2023-03-23T11:31:36;17.50;1.00
11132;DHT22;5620;53.570;9.718;2023-03-23T11:37:07;17.80;99.90
11132;DHT22;5620;53.570;9.718;2023-03-23T11:39:46;17.30;99.90
11132;DHT22;5620;53.570;9.718;2023-03-23T11:42:34;17.00;99.90
11132;DHT22;5620;53.570;9.718;2023-03-23T11:45:16;17.00;99.90
11132;DHT22;5620;53.570;9.718;2023-03-23T11:58:57;16.30;99.90
11132;DHT22;5620;53.570;9.718;2023-03-23T12:15:31;15.90;99.90
11132;DHT22;5620;53.570;9.718;2023-03-23T12:23:54;15.50;99.90
11132;DHT22;5620;53.570;9.718;2023-03-23T12:29:40;15.40;1.00
11132;DHT22;5620;53.570;9.718;2023-03-23T12:46:54;15.90;1.00
11132;DHT22;5620;53.570;9.718;2023-03-23T12:52:26;17.10;1.00
11132;DHT22;5620;53.570;9.718;2023-03-23T12:55:02;18.50;1.00
11132;DHT22;5620;53.570;9.718;2023-03-23T13:00:31;22.50;99.90
11132;DHT22;5620;53.570;9.718;2023-03-23T13:03:10;24.50;99.90
11132;DHT22;5620;53.570;9.718;2023-03-23T13:05:46;24.50;83.80
11132;DHT22;5620;53.570;9.718;2023-03-23T13:08:19;24.80;41.30
11132;DHT22;5620;53.570;9.718;2023-03-23T13:10:49;26.40;9.40
11132;DHT22;5620;53.570;9.718;2023-03-23T13:13:50;27.90;1.00
11132;DHT22;5620;53.570;9.718;2023-03-23T13:16:24;26.10;1.00
11132;DHT22;5620;53.570;9.718;2023-03-23T13:22:11;23.70;1.00
11132;DHT22;5620;53.570;9.718;2023-03-23T13:24:55;23.70;1.00
11132;DHT22;5620;53.570;9.718;2023-03-23T13:27:26;22.90;1.00
11132;DHT22;5620;53.570;9.718;2023-03-23T13:29:53;21.50;1.00
11132;DHT22;5620;53.570;9.718;2023-03-23T13:32:20;20.20;1.00
11132;DHT22;5620;53.570;9.718;2023-03-23T13:34:49;19.10;1.00
11132;DHT22;5620;53.570;9.718;2023-03-23T13:37:33;18.20;1.00
11132;DHT22;5620;53.570;9.718;2023-03-23T13:40:26;17.40;1.00
11132;DHT22;5620;53.570;9.718;2023-03-23T13:43:00;16.80;1.00
11132;DHT22;5620;53.570;9.718;2023-03-23T13:51:01;12.80;1.00
11132;DHT22;5620;53.570;9.718;2023-03-23T13:53:30;11.90;6.50
11132;DHT22;5620;53.570;9.718;2023-03-23T13:59:13;11.10;97.10
11132;DHT22;5620;53.570;9.718;2023-03-23T14:01:41;10.90;99.90
11132;DHT22;5620;53.570;9.718;2023-03-23T14:04:15;11.00;99.90
11132;DHT22;5620;53.570;9.718;2023-03-23T14:06:44;11.10;1.00
11132;DHT22;5620;53.570;9.718;2023-03-23T14:09:14;11.20;1.00
11132;DHT22;5620;53.570;9.718;2023-03-23T14:14:56;11.50;99.90
11132;DHT22;5620;53.570;9.718;2023-03-23T14:17:26;13.60;1.00
11132;DHT22;5620;53.570;9.718;2023-03-23T14:19:54;14.30;99.90
11132;DHT22;5620;53.570;9.718;2023-03-23T14:25:15;14.50;99.90
11132;DHT22;5620;53.570;9.718;2023-03-23T14:27:43;16.70;99.90
11132;DHT22;5620;53.570;9.718;2023-03-23T14:30:23;17.30;99.90
11132;DHT22;5620;53.570;9.718;2023-03-23T14:33:02;18.90;1.00
11132;DHT22;5620;53.570;9.718;2023-03-23T14:35:47;20.60;99.90
11132;DHT22;5620;53.570;9.718;2023-03-23T14:38:20;22.90;63.40
11132;DHT22;5620;53.570;9.718;2023-03-23T14:40:46;25.00;1.00
11132;DHT22;5620;53.570;9.718;2023-03-23T14:43:16;26.70;99.90
11132;DHT22;5620;53.570;9.718;2023-03-23T14:45:49;28.00;44.90
11132;DHT22;5620;53.570;9.718;2023-03-23T14:48:16;28.40;1.00
11132;DHT22;5620;53.570;9.718;2023-03-23T14:50:50;29.70;1.00
11132;DHT22;5620;53.570;9.718;2023-03-23T14:53:36;31.00;1.00
11132;DHT22;5620;53.570;9.718;2023-03-23T14:56:11;30.00;1.00
11132;DHT22;5620;53.570;9.718;2023-03-23T14:58:42;27.50;1.00
11132;DHT22;5620;53.570;9.718;2023-03-23T15:01:17;24.60;1.00
11132;DHT22;5620;53.570;9.718;2023-03-23T15:04:02;22.30;1.00
11132;DHT22;5620;53.570;9.718;2023-03-23T15:06:31;20.90;1.00
11132;DHT22;5620;53.570;9.718;2023-03-23T15:09:04;20.10;1.00
11132;DHT22;5620;53.570;9.718;2023-03-23T15:11:33;19.30;1.00
11132;DHT22;5620;53.570;9.718;2023-03-23T15:14:23;18.60;1.00
11132;DHT22;5620;53.570;9.718;2023-03-23T15:16:55;17.70;1.00
11132;DHT22;5620;53.570;9.718;2023-03-23T15:19:33;16.90;1.00
11132;DHT22;5620;53.570;9.718;2023-03-23T15:22:22;16.50;1.00
11132;DHT22;5620;53.570;9.718;2023-03-23T15:24:50;16.30;1.00
11132;DHT22;5620;53.570;9.718;2023-03-23T15:27:29;16.10;1.00
11132;DHT22;5620;53.570;9.718;2023-03-23T15:32:40;15.90;1.00
11132;DHT22;5620;53.570;9.718;2023-03-23T15:35:16;15.80;1.00
11132;DHT22;5620;53.570;9.718;2023-03-23T15:37:48;15.70;1.00
11132;DHT22;5620;53.570;9.718;2023-03-23T15:40:19;15.50;1.00
11132;DHT22;5620;53.570;9.718;2023-03-23T15:42:47;15.30;1.00
11132;DHT22;5620;53.570;9.718;2023-03-23T15:50:33;15.20;26.80
11132;DHT22;5620;53.570;9.718;2023-03-23T15:53:00;15.00;42.00
11132;DHT22;5620;53.570;9.718;2023-03-23T15:55:35;14.80;57.60
11132;DHT22;5620;53.570;9.718;2023-03-23T15:58:07;14.50;68.30
11132;DHT22;5620;53.570;9.718;2023-03-23T16:00:35;14.20;79.80
11132;DHT22;5620;53.570;9.718;2023-03-23T16:03:07;13.70;94.20
11132;DHT22;5620;53.570;9.718;2023-03-23T16:05:34;13.20;99.90
11132;DHT22;5620;53.570;9.718;2023-03-23T16:08:00;12.80;99.90
11132;DHT22;5620;53.570;9.718;2023-03-23T16:10:29;12.20;99.90
11132;DHT22;5620;53.570;9.718;2023-03-23T16:12:54;12.00;1.00
11132;DHT22;5620;53.570;9.718;2023-03-23T16:15:23;12.20;1.00
11132;DHT22;5620;53.570;9.718;2023-03-23T16:17:50;12.40;99.90
11132;DHT22;5620;53.570;9.718;2023-03-23T16:20:21;12.70;99.90
11132;DHT22;5620;53.570;9.718;2023-03-23T16:22:48;12.70;99.90
11132;DHT22;5620;53.570;9.718;2023-03-23T16:25:18;12.60;99.90
11132;DHT22;5620;53.570;9.718;2023-03-23T16:27:45;12.60;99.90
11132;DHT22;5620;53.570;9.718;2023-03-23T16:30:16;12.70;99.90
11132;DHT22;5620;53.570;9.718;2023-03-23T16:32:46;12.80;99.90
11132;DHT22;5620;53.570;9.718;2023-03-23T16:35:14;12.80;99.90
11132;DHT22;5620;53.570;9.718;2023-03-23T16:37:48;12.90;99.90
11132;DHT22;5620;53.570;9.718;2023-03-23T16:40:19;12.90;1.00
11132;DHT22;5620;53.570;9.718;2023-03-23T16:42:47;12.80;1.00
11132;DHT22;5620;53.570;9.718;2023-03-23T16:45:14;12.50;1.00
11132;DHT22;5620;53.570;9.718;2023-03-23T16:47:41;12.10;1.00
11132;DHT22;5620;53.570;9.718;2023-03-23T16:50:10;11.70;29.70
11132;DHT22;5620;53.570;9.718;2023-03-23T16:52:37;11.50;99.90
11132;DHT22;5620;53.570;9.718;2023-03-23T16:55:04;11.30;1.00
11132;DHT22;5620;53.570;9.718;2023-03-23T16:57:33;11.20;1.00
11132;DHT22;5620;53.570;9.718;2023-03-23T17:00:00;11.10;70.40
11132;DHT22;5620;53.570;9.718;2023-03-23T17:02:27;11.10;99.90
11132;DHT22;5620;53.570;9.718;2023-03-23T17:04:53;11.10;99.90
11132;DHT22;5620;53.570;9.718;2023-03-23T17:07:18;11.20;1.00
11132;DHT22;5620;53.570;9.718;2023-03-23T17:09:44;11.30;99.90
11132;DHT22;5620;53.570;9.718;2023-03-23T17:12:12;11.20;1.00
11132;DHT22;5620;53.570;9.718;2023-03-23T17:14:39;11.20;1.00
11132;DHT22;5620;53.570;9.718;2023-03-23T17:17:07;11.20;1.00
11132;DHT22;5620;53.570;9.718;2023-03-23T17:19:34;11.20;1.00
11132;DHT22;5620;53.570;9.718;2023-03-23T17:22:00;11.20;1.00
11132;DHT22;5620;53.570;9.718;2023-03-23T17:24:26;11.10;1.00
11132;DHT22;5620;53.570;9.718;2023-03-23T17:26:56;11.00;1.00
11132;DHT22;5620;53.570;9.718;2023-03-23T17:29:22;10.90;1.00
11132;DHT22;5620;53.570;9.718;2023-03-23T17:31:50;10.70;1.00
11132;DHT22;5620;53.570;9.718;2023-03-23T17:34:18;10.60;1.00
11132;DHT22;5620;53.570;9.718;2023-03-23T17:36:45;10.50;1.00
11132;DHT22;5620;53.570;9.718;2023-03-23T17:39:12;10.40;1.40
11132;DHT22;5620;53.570;9.718;2023-03-23T17:41:39;10.30;99.90
11132;DHT22;5620;53.570;9.718;2023-03-23T17:44:05;10.20;99.90
11132;DHT22;5620;53.570;9.718;2023-03-23T17:46:34;10.10;99.90
11132;DHT22;5620;53.570;9.718;2023-03-23T17:49:00;10.10;99.90
11132;DHT22;5620;53.570;9.718;2023-03-23T17:51:26;10.00;1.00
11132;DHT22;5620;53.570;9.718;2023-03-23T17:53:54;10.00;1.00
11132;DHT22;5620;53.570;9.718;2023-03-23T17:56:20;10.10;1.00
11132;DHT22;5620;53.570;9.718;2023-03-23T17:58:47;10.00;20.90
11132;DHT22;5620;53.570;9.718;2023-03-23T18:01:15;10.10;85.90
11132;DHT22;5620;53.570;9.718;2023-03-23T18:03:42;10.10;81.80
11132;DHT22;5620;53.570;9.718;2023-03-23T18:06:08;10.10;77.00
11132;DHT22;5620;53.570;9.718;2023-03-23T18:08:35;10.10;94.50
11132;DHT22;5620;53.570;9.718;2023-03-23T18:11:04;10.00;99.90
11132;DHT22;5620;53.570;9.718;2023-03-23T18:13:33;9.90;99.90
11132;DHT22;5620;53.570;9.718;2023-03-23T18:16:00;9.90;99.90
11132;DHT22;5620;53.570;9.718;2023-03-23T18:18:27;9.80;99.90
11132;DHT22;5620;53.570;9.718;2023-03-23T18:21:00;9.70;99.90